Time;durP1;ratioP1;P1;durP2;ratioP2;P2;SDS_P1;SDS_P2;PMS_P1;PMS_P2;Temp;Humidity;BMP_temperature;BMP_pressure;BME280_temperature;BME280_humidity;BME280_pressure;Samples;Min_cycle;Max_cycle;Signal;HPM_P1;HPM_P2
2021/05/27 00:00:42;;;;;;;1.40;1.30;;;;;;;19.38;73.82;97512.78;5016986;28;20582;-64
2021/05/27 00:03:09;;;;;;;1.60;1.20;;;;;;;19.38;73.69;97507.66;5019653;28;20234;-65
2021/05/27 00:05:36;;;;;;;1.43;1.33;;;;;;;19.38;73.83;97512.78;5023791;28;20248;-64
2021/05/27 00:08:03;;;;;;;1.23;1.13;;;;;;;19.38;73.72;97511.09;5002735;28;20298;-65
2021/05/27 00:10:30;;;;;;;1.13;1.13;;;;;;;19.37;73.83;97506.81;5004907;28;20233;-64
2021/05/27 00:12:57;;;;;;;1.10;1.10;;;;;;;19.21;73.74;97476.44;5001965;28;20319;-64
2021/05/27 00:15:25;;;;;;;1.10;1.10;;;;;;;19.18;73.76;97473.78;4995463;28;20257;-64
2021/05/27 00:17:52;;;;;;;1.00;1.00;;;;;;;19.36;73.59;97512.72;5006767;28;20335;-66
2021/05/27 00:20:18;;;;;;;1.43;1.20;;;;;;;19.36;73.72;97499.13;5020165;28;20257;-64
2021/05/27 00:22:45;;;;;;;1.70;1.40;;;;;;;19.35;73.67;97495.69;5002291;28;20205;-64
2021/05/27 00:25:12;;;;;;;1.50;1.40;;;;;;;19.35;73.77;97510.09;5021920;28;20260;-65
2021/05/27 00:27:40;;;;;;;1.40;1.30;;;;;;;17.31;73.87;97243.19;4990325;28;20617;-64
2021/05/27 00:30:07;;;;;;;1.57;1.47;;;;;;;19.35;73.96;97512.66;5009066;28;20228;-64
2021/05/27 00:32:34;;;;;;;1.30;1.20;;;;;;;19.34;73.81;97519.44;5024528;28;20229;-64
2021/05/27 00:35:00;;;;;;;1.30;1.20;;;;;;;19.36;73.89;97524.59;5028251;28;20225;-64
2021/05/27 00:37:27;;;;;;;1.10;1.10;;;;;;;19.35;74.01;97528.81;5023056;28;20320;-65
2021/05/27 00:39:53;;;;;;;1.43;1.30;;;;;;;19.37;73.95;97521.22;5022538;28;20268;-65
2021/05/27 00:42:20;;;;;;;1.10;1.10;;;;;;;19.36;73.92;97515.25;5023137;28;20301;-64
2021/05/27 00:45:03;;;;;;;1.37;1.27;;;;;;;19.36;73.98;97511.88;5028123;28;20261;-65
2021/05/27 00:47:30;;;;;;;1.30;1.20;;;;;;;19.37;74.00;97511.03;5024299;28;20289;-64
2021/05/27 00:49:56;;;;;;;1.03;1.03;;;;;;;18.98;73.97;97433.94;5029317;28;20209;-64
2021/05/27 00:52:23;;;;;;;1.30;1.20;;;;;;;19.37;73.88;97496.63;5027823;28;20245;-65
2021/05/27 00:54:50;;;;;;;1.20;1.10;;;;;;;19.37;73.72;97495.75;5008101;28;20296;-63
2021/05/27 00:57:42;;;;;;;1.50;1.10;;;;;;;15.89;73.60;96902.41;5023497;28;20256;-64
2021/05/27 01:00:13;;;;;;;1.20;1.20;;;;;;;16.19;73.51;96956.00;5008427;28;20237;-64
2021/05/27 01:02:39;;;;;;;1.20;1.20;;;;;;;19.36;73.78;97504.22;5001043;28;20602;-63
2021/05/27 01:05:07;;;;;;;1.30;1.20;;;;;;;19.35;73.67;97495.69;5003720;28;20312;-64
2021/05/27 01:07:34;;;;;;;1.10;1.10;;;;;;;19.34;73.84;97504.16;5005507;28;20290;-63
2021/05/27 01:10:05;;;;;;;1.40;1.30;;;;;;;19.34;73.95;97510.94;5020095;28;20206;-64
2021/05/27 01:12:32;;;;;;;1.50;1.40;;;;;;;19.20;74.12;97496.75;5024438;28;20674;-64
2021/05/27 01:17:44;;;;;;;1.10;1.10;;;;;;;18.77;74.04;97419.53;5015677;28;20238;-64
2021/05/27 01:20:12;;;;;;;1.20;1.10;;;;;;;15.88;73.61;97001.16;5008206;28;20706;-63
2021/05/27 01:22:39;;;;;;;1.20;1.10;;;;;;;19.11;74.07;97476.03;5004920;28;20278;-64
2021/05/27 01:25:07;;;;;;;1.20;1.10;;;;;;;18.93;73.99;97444.78;5008303;28;20253;-66
2021/05/27 01:27:33;;;;;;;1.20;1.20;;;;;;;19.35;73.93;97526.28;5003040;28;20225;-66
2021/05/27 01:30:01;;;;;;;1.10;1.10;;;;;;;19.36;74.06;97524.59;5005018;28;20745;-66
2021/05/27 01:32:27;;;;;;;1.17;1.13;;;;;;;19.36;73.87;97527.16;5025209;28;20293;-65
2021/05/27 01:34:54;;;;;;;1.00;1.00;;;;;;;19.36;73.90;97528.00;5024467;28;20275;-64
2021/05/27 01:37:21;;;;;;;1.17;1.10;;;;;;;19.36;73.87;97528.00;5019996;28;20272;-64
2021/05/27 01:39:47;;;;;;;1.10;1.10;;;;;;;19.37;73.82;97521.22;5023718;28;20654;-64
2021/05/27 01:42:14;;;;;;;1.07;1.07;;;;;;;18.89;74.04;97549.88;5024146;28;20253;-65
2021/05/27 01:44:41;;;;;;;1.27;1.17;;;;;;;19.38;73.94;97536.59;5023704;28;20264;-64
2021/05/27 01:47:08;;;;;;;1.30;1.20;;;;;;;18.87;73.75;97447.97;5021943;28;20280;-64
2021/05/27 01:49:41;;;;;;;1.17;1.17;;;;;;;19.36;73.71;97538.19;4991963;28;20277;-65
2021/05/27 01:52:08;;;;;;;1.27;1.20;;;;;;;19.35;73.73;97536.47;5004819;28;20229;-64
2021/05/27 01:54:34;;;;;;;1.10;1.10;;;;;;;19.35;73.77;97540.69;5020282;28;20254;-64
2021/05/27 01:57:01;;;;;;;1.30;1.20;;;;;;;18.06;73.68;97320.88;5024911;28;20247;-65
2021/05/27 01:59:27;;;;;;;1.30;1.20;;;;;;;15.41;73.61;96852.25;5021656;28;20644;-64
2021/05/27 02:01:54;;;;;;;1.20;1.10;;;;;;;19.33;74.00;97532.97;5022028;28;20260;-64
2021/05/27 02:04:21;;;;;;;1.40;1.30;;;;;;;19.33;73.91;97532.13;5003934;28;20761;-64
2021/05/27 02:06:48;;;;;;;1.10;1.10;;;;;;;19.33;73.84;97532.97;5021938;28;20206;-64
2021/05/27 02:09:14;;;;;;;1.13;1.00;;;;;;;17.69;73.81;97243.09;5023155;28;20236;-64
2021/05/27 02:11:42;;;;;;;1.20;1.10;;;;;;;19.05;73.88;97480.88;5021902;28;20280;-63
2021/05/27 02:14:10;;;;;;;0.93;0.93;;;;;;;19.34;73.98;97533.88;5005437;28;20263;-65
2021/05/27 02:16:37;;;;;;;1.13;1.10;;;;;;;19.33;73.95;97529.59;5023511;28;20293;-65
2021/05/27 02:19:04;;;;;;;1.30;1.20;;;;;;;19.33;73.73;97524.50;5029207;28;20308;-64
2021/05/27 02:21:31;;;;;;;1.13;1.13;;;;;;;19.32;73.98;97528.72;4992650;28;20245;-65
2021/05/27 02:23:59;;;;;;;1.30;1.20;;;;;;;19.32;73.79;97536.34;5001012;28;20706;-64
2021/05/27 02:26:27;;;;;;;1.53;1.30;;;;;;;19.33;73.96;97534.69;5022396;28;20256;-64
2021/05/27 02:28:53;;;;;;;1.10;1.00;;;;;;;18.97;74.50;97474.63;4984184;28;20240;-64
2021/05/27 02:31:20;;;;;;;1.37;1.27;;;;;;;19.33;73.92;97539.78;5021733;28;20320;-64
2021/05/27 02:33:47;;;;;;;1.20;1.20;;;;;;;19.33;73.92;97547.44;5026024;28;20237;-64
2021/05/27 02:36:13;;;;;;;1.20;1.20;;;;;;;19.32;73.65;97546.53;5021579;28;20260;-65
2021/05/27 02:38:40;;;;;;;1.13;1.10;;;;;;;19.33;73.99;97544.88;5020863;28;20213;-64
2021/05/27 02:41:07;;;;;;;1.00;1.00;;;;;;;18.56;74.01;97467.91;5002900;28;20256;-65
2021/05/27 02:43:34;;;;;;;1.20;1.10;;;;;;;19.14;73.88;97512.69;5004740;28;20237;-65
2021/05/27 02:46:00;;;;;;;1.20;1.10;;;;;;;19.34;73.83;97550.03;5006843;28;20253;-63
2021/05/27 02:48:47;;;;;;;0.80;0.80;;;;;;;19.35;74.28;97540.69;5019516;28;20198;-64
2021/05/27 02:51:13;;;;;;;1.30;1.20;;;;;;;19.34;73.87;97544.94;5025789;28;20293;-65
2021/05/27 02:53:40;;;;;;;1.40;1.10;;;;;;;19.35;73.67;97546.66;5022838;28;20252;-64
2021/05/27 02:56:07;;;;;;;1.30;1.17;;;;;;;19.36;73.95;97550.09;5023172;28;20611;-64
2021/05/27 02:58:33;;;;;;;1.13;1.13;;;;;;;19.37;73.74;97549.25;5018055;28;20269;-64
2021/05/27 03:01:00;;;;;;;1.07;1.07;;;;;;;19.37;73.76;97547.59;5025905;28;20209;-64
2021/05/27 03:03:26;;;;;;;1.07;1.07;;;;;;;19.38;73.65;97551.88;5021365;28;20292;-65
2021/05/27 03:05:53;;;;;;;1.10;1.10;;;;;;;19.20;73.93;97515.47;5020980;28;20317;-65
2021/05/27 03:08:20;;;;;;;1.17;1.17;;;;;;;17.80;73.40;97311.34;4997225;28;20198;-64
2021/05/27 03:10:46;;;;;;;1.00;1.00;;;;;;;19.40;73.82;97547.72;5028957;28;20236;-64
2021/05/27 03:13:13;;;;;;;1.30;1.20;;;;;;;19.41;73.90;97557.09;5007289;28;20210;-64
2021/05/27 03:15:39;;;;;;;1.20;1.20;;;;;;;19.41;73.66;97552.00;5022802;28;20681;-65
2021/05/27 03:18:07;;;;;;;1.00;1.00;;;;;;;18.16;73.33;97333.19;5020383;28;20595;-65
2021/05/27 03:20:34;;;;;;;1.10;1.10;;;;;;;19.43;73.46;97563.13;5004925;28;20236;-64
2021/05/27 03:23:01;;;;;;;1.10;1.10;;;;;;;19.43;73.46;97563.13;5022555;28;20265;-64
2021/05/27 03:25:27;;;;;;;1.23;1.13;;;;;;;17.70;72.98;97308.38;5021683;28;20226;-64
2021/05/27 03:27:54;;;;;;;0.80;0.80;;;;;;;19.45;73.31;97551.28;5023263;28;20240;-64
2021/05/27 03:30:21;;;;;;;1.10;1.10;;;;;;;19.46;73.24;97549.63;5002494;28;20343;-63
2021/05/27 03:32:48;;;;;;;1.00;1.00;;;;;;;19.47;73.20;97553.88;5024810;28;20240;-63
2021/05/27 03:35:14;;;;;;;1.20;1.10;;;;;;;19.47;73.19;97554.78;5019163;28;20325;-65
2021/05/27 03:37:41;;;;;;;0.90;0.90;;;;;;;19.48;72.95;97556.50;5005496;28;20289;-65
2021/05/27 03:42:41;;;;;;;1.00;1.00;;;;;;;15.18;72.74;96811.53;5006402;28;20236;-64
2021/05/27 03:45:09;;;;;;;1.10;1.10;;;;;;;19.51;72.85;97556.63;4987892;28;20309;-65
2021/05/27 03:47:37;;;;;;;1.23;1.13;;;;;;;19.52;72.81;97552.38;5021222;28;20649;-64
2021/05/27 03:50:09;;;;;;;1.10;1.10;;;;;;;18.95;72.90;97550.13;5022679;28;20285;-64
2021/05/27 03:52:36;;;;;;;1.20;1.17;;;;;;;19.53;72.61;97547.34;4989332;28;20236;-64
2021/05/27 03:55:07;;;;;;;1.20;1.20;;;;;;;19.54;72.68;97548.22;5005281;28;20781;-63
2021/05/27 03:57:34;;;;;;;1.27;1.17;;;;;;;19.53;72.63;97547.34;5003055;28;20198;-64
2021/05/27 04:02:48;;;;;;;1.10;1.10;;;;;;;19.56;72.71;97556.78;5006127;28;20241;-64
2021/05/27 04:08:13;;;;;;;1.23;1.17;;;;;;;19.56;72.41;97559.34;4994211;28;20293;-63
2021/05/27 04:10:40;;;;;;;1.10;1.10;;;;;;;19.01;72.53;97548.66;5009261;28;20250;-64
2021/05/27 04:13:06;;;;;;;1.00;1.00;;;;;;;19.57;72.32;97550.91;5005943;28;20241;-64
2021/05/27 04:15:34;;;;;;;1.00;1.00;;;;;;;19.57;72.36;97556.84;5029433;28;20312;-65
2021/05/27 04:18:04;;;;;;;1.00;1.00;;;;;;;19.58;72.53;97560.28;5023617;28;20660;-64
2021/05/27 04:20:32;;;;;;;1.00;1.00;;;;;;;18.57;72.17;97383.16;5026113;28;20225;-64
2021/05/27 04:22:59;;;;;;;1.13;1.13;;;;;;;18.37;72.18;97347.50;4997677;28;20438;-64
2021/05/27 04:25:26;;;;;;;1.10;1.10;;;;;;;19.38;72.36;97520.41;5006971;28;20222;-66
2021/05/27 04:27:54;;;;;;;1.17;1.17;;;;;;;18.59;72.13;97406.13;5009243;28;20661;-64
2021/05/27 04:30:22;;;;;;;1.43;1.10;;;;;;;18.15;72.01;97311.06;5011360;28;20198;-66
2021/05/27 04:35:49;;;;;;;1.20;1.20;;;;;;;19.62;71.79;97577.41;4994341;28;20256;-65
2021/05/27 04:38:17;;;;;;;1.20;1.10;;;;;;;19.63;72.20;97580.00;5024764;28;20284;-65
2021/05/27 04:40:47;;;;;;;0.97;0.97;;;;;;;19.63;72.11;97582.56;5007116;28;20297;-65
2021/05/27 04:43:18;;;;;;;1.10;1.10;;;;;;;19.14;72.01;97612.03;5008302;28;20233;-65
2021/05/27 04:45:44;;;;;;;1.10;1.00;;;;;;;19.64;72.11;97580.91;5006859;28;20230;-65
2021/05/27 04:48:13;;;;;;;1.00;1.00;;;;;;;16.10;71.71;96968.31;5005945;28;20763;-66
2021/05/27 04:50:40;;;;;;;1.10;1.10;;;;;;;19.65;71.95;97573.31;5027947;28;20284;-67
2021/05/27 04:53:07;;;;;;;1.00;1.00;;;;;;;19.67;72.03;97578.47;5027637;28;20740;-65
2021/05/27 04:55:33;;;;;;;0.90;0.90;;;;;;;19.66;71.89;97580.13;4986418;28;20312;-66
2021/05/27 04:58:00;;;;;;;1.43;1.33;;;;;;;19.66;71.93;97586.94;5025459;28;20289;-66
2021/05/27 05:00:27;;;;;;;1.10;1.10;;;;;;;19.67;71.67;97583.56;5024258;28;20256;-64
2021/05/27 05:02:54;;;;;;;1.00;1.00;;;;;;;19.69;71.74;97581.94;5019604;28;20665;-64
2021/05/27 05:05:21;;;;;;;1.10;1.10;;;;;;;19.68;71.63;97581.06;5009387;28;20217;-65
2021/05/27 05:07:49;;;;;;;1.10;1.10;;;;;;;19.70;71.73;97587.09;5022252;28;20631;-64
2021/05/27 05:10:16;;;;;;;1.10;1.10;;;;;;;19.70;71.65;97581.13;5006514;28;20197;-64
2021/05/27 05:12:52;;;;;;;1.10;1.10;;;;;;;19.70;71.59;97582.00;5020715;28;20244;-65
2021/05/27 05:15:24;;;;;;;1.10;1.10;;;;;;;19.71;71.51;97596.47;5074062;22;20272;-67
2021/05/27 05:17:51;;;;;;;1.00;1.00;;;;;;;19.71;71.44;97578.63;5032330;28;20204;-67
2021/05/27 05:20:19;;;;;;;1.00;1.00;;;;;;;19.71;71.61;97581.19;5070405;28;20258;-67
2021/05/27 05:22:46;;;;;;;1.10;1.10;;;;;;;19.61;71.46;97568.03;5067895;28;20689;-66
2021/05/27 05:25:13;;;;;;;1.33;1.13;;;;;;;19.69;71.29;97582.78;5049668;28;20763;-66
2021/05/27 05:27:39;;;;;;;0.90;0.90;;;;;;;19.72;71.38;97585.44;5036452;28;20287;-67
2021/05/27 05:30:07;;;;;;;1.20;1.10;;;;;;;16.12;70.88;96962.53;5057463;28;20321;-67
2021/05/27 05:32:34;;;;;;;1.13;1.13;;;;;;;16.43;70.71;97021.31;5054495;28;20242;-66
2021/05/27 05:35:00;;;;;;;1.00;1.00;;;;;;;19.40;71.18;97569.78;5037379;28;20656;-66
2021/05/27 05:37:27;;;;;;;1.10;1.10;;;;;;;19.63;71.25;97568.97;5053052;28;20216;-66
2021/05/27 05:39:54;;;;;;;1.10;1.10;;;;;;;19.38;71.14;97528.06;5055573;28;20278;-66
2021/05/27 05:42:21;;;;;;;1.10;1.10;;;;;;;19.78;71.28;97598.44;5037701;28;20246;-67
2021/05/27 05:44:48;;;;;;;1.00;1.00;;;;;;;16.01;70.92;96962.84;5055405;28;20239;-66
2021/05/27 05:47:14;;;;;;;1.20;1.10;;;;;;;18.56;71.15;97386.47;5054212;28;20292;-67
2021/05/27 05:49:41;;;;;;;1.00;1.00;;;;;;;19.65;70.91;97572.41;5056700;28;20319;-67
2021/05/27 05:52:07;;;;;;;1.17;1.10;;;;;;;19.68;70.90;97588.72;5052215;28;20295;-66
2021/05/27 05:54:34;;;;;;;1.00;1.00;;;;;;;19.77;70.82;97595.81;5034620;28;20318;-66
2021/05/27 05:57:01;;;;;;;1.30;1.20;;;;;;;19.01;70.47;97494.31;5020891;28;20205;-67
2021/05/27 05:59:27;;;;;;;1.10;1.10;;;;;;;19.82;70.81;97614.72;5051626;28;20676;-67
2021/05/27 06:01:55;;;;;;;1.00;1.00;;;;;;;19.76;70.95;97602.63;5052999;28;20224;-66
2021/05/27 06:04:21;;;;;;;0.90;0.90;;;;;;;19.14;71.00;97502.50;5057323;28;20247;-66
2021/05/27 06:06:51;;;;;;;1.00;1.00;;;;;;;19.72;70.96;97608.41;5018914;28;20248;-66
2021/05/27 06:09:18;;;;;;;1.10;1.10;;;;;;;19.80;70.81;97616.34;5055959;28;20326;-66
2021/05/27 06:11:45;;;;;;;1.10;1.10;;;;;;;19.79;70.86;97614.59;5036849;28;20586;-66
2021/05/27 06:14:12;;;;;;;1.70;1.10;;;;;;;19.79;71.11;97620.59;5053182;28;20226;-66
2021/05/27 06:16:38;;;;;;;1.57;1.20;;;;;;;19.77;70.85;97612.00;5053191;28;20228;-67
2021/05/27 06:19:05;;;;;;;1.63;1.20;;;;;;;19.73;71.20;97607.63;5051513;28;20211;-66
2021/05/27 06:21:32;;;;;;;1.67;1.10;;;;;;;19.77;71.12;97618.78;5051932;28;20307;-66
2021/05/27 06:23:59;;;;;;;1.27;1.10;;;;;;;19.74;71.17;97619.53;5042088;28;20264;-66
2021/05/27 06:26:26;;;;;;;1.10;1.10;;;;;;;19.38;71.21;97562.06;5022349;28;20225;-66
2021/05/27 06:28:52;;;;;;;1.47;1.30;;;;;;;19.69;71.13;97618.47;5022963;28;20202;-65
2021/05/27 06:31:19;;;;;;;1.43;1.10;;;;;;;19.69;71.30;97627.84;5052988;28;20228;-67
2021/05/27 06:33:46;;;;;;;1.10;1.10;;;;;;;19.58;71.18;97624.88;5051086;28;20237;-66
2021/05/27 06:36:13;;;;;;;1.30;1.20;;;;;;;19.56;71.54;97620.50;5057286;28;20251;-66
2021/05/27 06:38:39;;;;;;;1.10;1.10;;;;;;;19.30;71.14;97571.09;5060542;28;20269;-66
2021/05/27 06:41:07;;;;;;;1.20;1.10;;;;;;;19.32;71.62;97571.16;5055185;28;20263;-66
2021/05/27 06:43:34;;;;;;;2.20;1.30;;;;;;;19.66;71.73;97640.47;5033469;28;20915;-67
2021/05/27 06:46:01;;;;;;;0.90;0.90;;;;;;;19.66;71.85;97640.47;5043248;28;20612;-67
2021/05/27 06:48:27;;;;;;;2.30;1.23;;;;;;;19.65;71.46;97637.03;5043943;28;20228;-66
2021/05/27 06:50:54;;;;;;;1.33;1.20;;;;;;;19.65;71.25;97641.25;5047995;28;20243;-66
2021/05/27 06:53:21;;;;;;;1.20;1.10;;;;;;;19.66;72.21;97645.56;5048802;28;20224;-66
2021/05/27 06:55:47;;;;;;;1.10;1.10;;;;;;;19.51;71.64;97617.78;5048315;28;20316;-65
2021/05/27 06:58:15;;;;;;;1.20;1.10;;;;;;;19.66;71.58;97640.47;5030003;28;20240;-65
2021/05/27 07:00:42;;;;;;;1.10;1.10;;;;;;;19.66;71.97;97640.47;5031425;28;20736;-67
2021/05/27 07:03:11;;;;;;;1.20;1.10;;;;;;;19.34;71.82;97589.91;5052128;28;20292;-67
2021/05/27 07:05:38;;;;;;;1.10;1.10;;;;;;;19.66;71.76;97648.97;5032013;28;20290;-67
2021/05/27 07:08:06;;;;;;;1.47;1.37;;;;;;;19.65;71.83;97646.34;5049386;28;20228;-66
2021/05/27 07:10:33;;;;;;;0.90;0.90;;;;;;;19.54;71.53;97627.25;5049988;28;20192;-66
2021/05/27 07:13:01;;;;;;;1.17;1.07;;;;;;;19.64;71.65;97642.97;5054286;28;20216;-66
2021/05/27 07:15:28;;;;;;;1.00;1.00;;;;;;;19.63;71.75;97641.19;5049960;28;20644;-67
2021/05/27 07:17:55;;;;;;;1.20;1.10;;;;;;;19.65;71.87;97649.78;5030126;28;20294;-67
2021/05/27 07:20:22;;;;;;;1.07;1.07;;;;;;;19.65;71.78;97644.69;5046681;28;20248;-65
2021/05/27 07:22:50;;;;;;;0.97;0.97;;;;;;;19.63;71.67;97655.66;5033013;28;20232;-66
2021/05/27 07:25:17;;;;;;;1.10;1.10;;;;;;;19.61;71.74;97659.81;5045938;28;20752;-66
2021/05/27 07:27:49;;;;;;;1.13;1.10;;;;;;;19.41;71.78;97620.78;5052353;28;20589;-67
2021/05/27 07:30:17;;;;;;;1.10;1.10;;;;;;;19.50;71.75;97646.66;5046328;28;20307;-65
2021/05/27 07:32:45;;;;;;;1.00;1.00;;;;;;;19.57;71.93;97657.97;5047898;28;21030;-65
2021/05/27 07:35:11;;;;;;;1.30;1.20;;;;;;;19.54;72.05;97653.59;5050721;28;20307;-66
2021/05/27 07:37:38;;;;;;;1.10;1.10;;;;;;;19.55;72.27;97657.03;5055336;28;20280;-66
2021/05/27 07:40:05;;;;;;;1.10;1.10;;;;;;;19.54;72.35;97656.13;5055867;28;20252;-65
2021/05/27 07:42:33;;;;;;;1.30;1.20;;;;;;;19.54;72.24;97658.69;5051887;28;20224;-67
2021/05/27 07:45:00;;;;;;;1.13;1.07;;;;;;;19.25;72.46;97607.38;5017309;28;20240;-67
2021/05/27 07:47:29;;;;;;;1.07;1.07;;;;;;;19.21;72.32;97605.47;5022472;28;20929;-67
2021/05/27 07:49:56;;;;;;;1.10;1.10;;;;;;;19.55;72.36;97659.56;5051077;28;20232;-67
2021/05/27 07:52:22;;;;;;;1.23;1.10;;;;;;;19.55;72.39;97663.00;5054972;28;20224;-66
2021/05/27 07:54:49;;;;;;;1.20;1.10;;;;;;;19.54;72.92;97662.94;5041116;28;20235;-66
2021/05/27 07:57:16;;;;;;;1.30;1.20;;;;;;;19.54;72.55;97653.59;5056588;28;20243;-67
2021/05/27 07:59:42;;;;;;;1.00;1.00;;;;;;;19.55;72.00;97665.53;5050977;28;20682;-66
2021/05/27 08:02:09;;;;;;;1.00;1.00;;;;;;;19.55;72.39;97655.34;5049850;28;20239;-66
2021/05/27 08:04:36;;;;;;;1.23;1.17;;;;;;;19.26;72.46;97606.53;5051942;28;20359;-67
2021/05/27 08:07:02;;;;;;;1.10;1.10;;;;;;;19.55;72.29;97665.53;5038005;28;20524;-66
2021/05/27 08:09:29;;;;;;;1.07;1.07;;;;;;;19.24;72.78;97601.38;5034768;28;21001;-66
2021/05/27 08:11:56;;;;;;;1.30;1.20;;;;;;;19.56;72.29;97651.09;5045539;28;20216;-67
2021/05/27 08:14:22;;;;;;;1.17;1.10;;;;;;;19.56;72.33;97651.97;5054680;28;20950;-66
2021/05/27 08:16:49;;;;;;;1.00;1.00;;;;;;;19.24;72.18;97592.88;5051423;28;20324;-66
2021/05/27 08:19:15;;;;;;;1.20;1.10;;;;;;;19.54;72.46;97647.66;5051644;28;20813;-66
2021/05/27 08:21:42;;;;;;;1.10;1.10;;;;;;;19.53;72.33;97650.97;5048224;28;20256;-66
2021/05/27 08:24:09;;;;;;;1.00;1.00;;;;;;;19.52;72.27;97651.81;5051185;28;20674;-66
2021/05/27 08:26:35;;;;;;;1.10;1.10;;;;;;;19.33;72.78;97624.72;5055524;28;20220;-66
2021/05/27 08:29:02;;;;;;;1.27;1.17;;;;;;;19.49;72.34;97657.66;5052284;28;20288;-66
2021/05/27 08:31:30;;;;;;;1.10;1.10;;;;;;;19.50;72.39;97659.38;5047454;28;20193;-66
2021/05/27 08:33:57;;;;;;;1.27;1.17;;;;;;;19.49;72.58;97652.56;5028256;28;20232;-66
2021/05/27 08:36:23;;;;;;;1.20;1.10;;;;;;;19.47;72.54;97653.28;5051198;28;20255;-66
2021/05/27 08:38:50;;;;;;;1.07;1.07;;;;;;;19.49;72.50;97651.69;5056031;28;20317;-66
2021/05/27 08:41:19;;;;;;;1.00;1.00;;;;;;;19.49;72.57;97654.22;5047172;28;20250;-67
2021/05/27 08:43:48;;;;;;;1.30;1.20;;;;;;;19.50;72.70;97655.97;5036108;28;20262;-66
2021/05/27 08:46:14;;;;;;;1.10;1.10;;;;;;;19.51;72.59;97647.53;5056210;28;20235;-66
2021/05/27 08:48:42;;;;;;;0.90;0.90;;;;;;;19.18;72.56;97585.84;5055711;28;20650;-67
2021/05/27 08:51:09;;;;;;;1.00;1.00;;;;;;;19.51;72.72;97648.38;5023016;28;20197;-66
2021/05/27 08:53:35;;;;;;;1.20;1.20;;;;;;;19.23;72.59;97597.13;5050321;28;20205;-68
2021/05/27 08:56:03;;;;;;;1.57;1.10;;;;;;;19.51;70.75;97650.06;5038718;28;20732;-67
2021/05/27 08:58:29;;;;;;;1.87;1.10;;;;;;;18.97;70.79;97556.13;5053628;28;20288;-66
2021/05/27 09:00:56;;;;;;;1.00;0.90;;;;;;;19.54;70.88;97652.75;5060169;28;20802;-66
2021/05/27 09:03:23;;;;;;;2.60;1.30;;;;;;;18.92;70.92;97563.56;5054782;28;20291;-65
2021/05/27 09:06:00;;;;;;;1.20;1.10;;;;;;;19.56;71.11;97658.75;5022783;28;20252;-68
2021/05/27 09:08:28;;;;;;;1.97;1.00;;;;;;;19.13;71.25;97572.06;5052656;28;20228;-67
2021/05/27 09:11:08;;;;;;;1.37;1.27;;;;;;;19.28;71.30;97600.75;5037015;28;20215;-67
2021/05/27 09:13:36;;;;;;;1.20;1.10;;;;;;;19.33;71.30;97601.78;5038132;28;20232;-67
2021/05/27 09:16:07;;;;;;;1.40;1.30;;;;;;;19.63;71.24;97650.56;5037883;28;20319;-66
2021/05/27 09:18:37;;;;;;;3.03;1.10;;;;;;;19.63;71.11;97642.91;5053732;28;20231;-67
2021/05/27 09:21:06;;;;;;;1.30;1.20;;;;;;;19.65;71.29;97652.34;5058245;28;20311;-66
2021/05/27 09:23:33;;;;;;;2.13;1.60;;;;;;;19.67;71.07;97662.59;5038420;28;20448;-66
2021/05/27 09:26:08;;;;;;;1.00;1.00;;;;;;;19.66;71.16;97656.63;5034628;28;20254;-66
2021/05/27 09:28:35;;;;;;;1.30;1.20;;;;;;;19.65;71.03;97667.63;5032737;28;20282;-66
2021/05/27 09:31:06;;;;;;;2.07;1.20;;;;;;;19.64;71.15;97665.03;5052205;28;20200;-67
2021/05/27 09:33:37;;;;;;;1.60;1.10;;;;;;;19.61;71.17;97657.25;5056258;28;20300;-66
2021/05/27 09:36:11;;;;;;;1.20;1.10;;;;;;;19.60;71.12;97661.47;5033359;28;20271;-65
2021/05/27 09:38:45;;;;;;;1.70;1.30;;;;;;;19.59;71.31;97654.66;5050291;28;20287;-67
2021/05/27 09:41:30;;;;;;;1.37;1.27;;;;;;;19.49;71.47;97642.38;5049336;28;20278;-67
2021/05/27 09:44:06;;;;;;;1.33;1.23;;;;;;;19.62;71.28;97658.97;5036706;28;20573;-67
2021/05/27 09:46:55;;;;;;;1.23;1.10;;;;;;;19.63;71.36;97659.03;5052961;28;20649;-66
2021/05/27 09:49:26;;;;;;;6.37;1.20;;;;;;;19.65;71.17;97661.66;5033216;28;20291;-67
2021/05/27 09:51:53;;;;;;;2.13;1.27;;;;;;;19.41;71.11;97615.69;5033690;28;20842;-67
2021/05/27 09:54:20;;;;;;;1.00;1.00;;;;;;;19.49;71.03;97621.09;5017638;28;20293;-67
2021/05/27 09:56:48;;;;;;;1.20;1.10;;;;;;;19.68;71.18;97649.03;5047217;28;20232;-67
2021/05/27 09:59:16;;;;;;;1.33;1.13;;;;;;;19.69;71.01;97651.63;5054876;28;20769;-67
2021/05/27 10:02:11;;;;;;;1.20;1.10;;;;;;;19.68;71.08;97644.81;5048208;28;20300;-66
2021/05/27 10:04:57;;;;;;;1.10;1.00;;;;;;;19.66;71.06;97643.03;5047097;28;20243;-66
2021/05/27 10:07:38;;;;;;;1.53;1.17;;;;;;;19.64;71.14;97647.19;5038387;28;20236;-66
2021/05/27 10:10:24;;;;;;;3.23;1.20;;;;;;;19.63;71.23;97641.19;5045484;28;20204;-65
2021/05/27 10:12:53;;;;;;;1.00;1.00;;;;;;;19.59;71.48;97633.38;5050731;28;20581;-67
2021/05/27 10:15:24;;;;;;;1.57;1.10;;;;;;;19.61;71.42;97644.50;5055743;28;20263;-66
2021/05/27 10:17:53;;;;;;;1.20;1.10;;;;;;;19.60;71.51;97641.09;5054124;28;20205;-67
2021/05/27 10:20:21;;;;;;;1.10;1.00;;;;;;;19.43;71.41;97614.09;5051254;28;20654;-67
2021/05/27 10:22:48;;;;;;;1.00;0.90;;;;;;;19.62;71.27;97642.03;5027762;28;20256;-67
2021/05/27 10:25:16;;;;;;;2.07;1.00;;;;;;;19.62;71.31;97634.38;5053542;28;20251;-67
2021/05/27 10:27:45;;;;;;;1.10;1.00;;;;;;;19.27;71.20;97575.22;5051902;28;20202;-67
2021/05/27 10:30:12;;;;;;;1.37;1.27;;;;;;;19.64;71.26;97645.50;5013613;28;20267;-67
2021/05/27 10:32:45;;;;;;;1.53;1.43;;;;;;;19.60;71.16;97641.09;5037065;28;20228;-66
2021/05/27 10:35:12;;;;;;;2.27;1.80;;;;;;;19.62;71.28;97647.13;5018760;28;20247;-66
2021/05/27 10:37:39;;;;;;;2.40;1.70;;;;;;;19.64;71.10;97645.50;5054580;28;20239;-67
2021/05/27 10:40:21;;;;;;;4.13;1.80;;;;;;;19.66;71.22;97643.03;5053226;28;20205;-66
2021/05/27 10:42:57;;;;;;;3.67;1.80;;;;;;;19.65;71.07;97638.72;5046516;28;20208;-67
2021/05/27 10:45:32;;;;;;;2.10;1.77;;;;;;;18.64;71.13;97456.38;5045225;28;20326;-67
2021/05/27 10:48:11;;;;;;;2.50;2.30;;;;;;;19.64;71.13;97637.84;5032228;28;20838;-67
2021/05/27 10:53:36;;;;;;;2.90;2.50;;;;;;;19.65;71.35;97638.72;5053488;28;20296;-67
2021/05/27 10:56:06;;;;;;;2.60;2.33;;;;;;;19.64;71.22;97642.97;5048183;28;20229;-67
2021/05/27 10:58:45;;;;;;;3.17;2.80;;;;;;;19.64;71.19;97636.97;5051564;28;20616;-66
2021/05/27 11:01:33;;;;;;;2.80;2.50;;;;;;;19.63;71.23;97636.09;5047350;28;20220;-66
2021/05/27 11:04:03;;;;;;;4.60;2.70;;;;;;;19.63;71.24;97640.34;5033820;28;20205;-66
2021/05/27 11:06:47;;;;;;;3.30;2.60;;;;;;;19.61;71.25;97642.84;5042536;28;20849;-67
2021/05/27 11:09:14;;;;;;;4.10;2.90;;;;;;;19.61;71.19;97647.06;5030911;28;20712;-67
2021/05/27 11:11:58;;;;;;;5.57;2.67;;;;;;;19.58;71.43;97640.16;5051709;28;20202;-66
2021/05/27 11:14:27;;;;;;;4.20;2.80;;;;;;;19.57;71.59;97640.97;5051482;28;20196;-67
2021/05/27 11:17:03;;;;;;;3.87;2.60;;;;;;;19.57;71.63;97637.56;5064861;22;20257;-67
2021/05/27 11:22:27;;;;;;;4.83;3.17;;;;;;;19.55;71.71;97636.63;5030910;28;20302;-67
2021/05/27 11:27:53;;;;;;;4.13;3.10;;;;;;;19.55;71.64;97636.63;5011576;28;20202;-67
2021/05/27 11:30:19;;;;;;;4.80;3.40;;;;;;;19.54;71.66;97628.09;5013267;28;20272;-67
2021/05/27 11:32:48;;;;;;;5.33;3.43;;;;;;;19.55;71.71;97639.19;5015436;28;20252;-67
2021/05/27 11:35:16;;;;;;;5.03;3.50;;;;;;;19.56;71.92;97633.25;5012953;28;20284;-67
2021/05/27 11:37:45;;;;;;;4.00;3.10;;;;;;;19.56;71.58;97634.13;5014158;28;20372;-67
2021/05/27 11:40:14;;;;;;;4.13;3.07;;;;;;;19.57;71.62;97619.72;5011607;28;20237;-68
2021/05/27 11:42:41;;;;;;;3.20;2.87;;;;;;;19.56;71.71;97623.06;5017091;28;20881;-68
2021/05/27 11:45:08;;;;;;;6.33;3.20;;;;;;;19.41;71.56;97594.44;5017539;28;20724;-69
2021/05/27 11:47:35;;;;;;;4.77;3.27;;;;;;;18.99;71.59;97529.94;5000632;28;20257;-67
2021/05/27 11:50:11;;;;;;;3.30;2.77;;;;;;;19.59;71.67;97629.16;4997616;28;20751;-68
2021/05/27 11:52:38;;;;;;;3.93;3.17;;;;;;;19.59;71.57;97624.06;5008594;28;20251;-68
2021/05/27 11:55:05;;;;;;;5.67;3.10;;;;;;;19.59;71.64;97624.06;5010522;28;20611;-68
2021/05/27 11:57:48;;;;;;;4.27;2.90;;;;;;;19.58;71.63;97619.78;5009784;28;20627;-68
2021/05/27 12:00:17;;;;;;;3.83;3.07;;;;;;;19.41;71.47;97584.25;5009760;28;20293;-68
2021/05/27 12:02:48;;;;;;;5.57;3.00;;;;;;;19.60;71.50;97615.59;5010751;28;20257;-69